sensor_id;sensor_type;location;lat;lon;timestamp;pressure;altitude;pressure_sealevel;temperature;humidity
11680;BME280;5896;42.686;23.142;2023-12-29T00:01:55;93741.28;;;1.88;85.32
11680;BME280;5896;42.686;23.142;2023-12-29T00:04:21;93748.97;;;1.97;84.17
11680;BME280;5896;42.686;23.142;2023-12-29T00:06:46;93737.66;;;1.91;84.72
11680;BME280;5896;42.686;23.142;2023-12-29T00:09:11;93738.78;;;1.97;85.26
11680;BME280;5896;42.686;23.142;2023-12-29T00:11:38;93731.81;;;1.99;84.70
11680;BME280;5896;42.686;23.142;2023-12-29T00:14:03;93728.53;;;1.88;84.61
11680;BME280;5896;42.686;23.142;2023-12-29T00:16:29;93727.81;;;1.96;84.37
11680;BME280;5896;42.686;23.142;2023-12-29T00:18:54;93730.28;;;2.06;84.77
11680;BME280;5896;42.686;23.142;2023-12-29T00:21:20;93729.88;;;2.18;83.63
11680;BME280;5896;42.686;23.142;2023-12-29T00:23:46;93718.09;;;2.17;84.65
11680;BME280;5896;42.686;23.142;2023-12-29T00:26:12;93705.81;;;2.13;84.24
11680;BME280;5896;42.686;23.142;2023-12-29T00:28:37;93697.97;;;2.32;84.71
11680;BME280;5896;42.686;23.142;2023-12-29T00:31:08;93695.50;;;2.49;84.79
11680;BME280;5896;42.686;23.142;2023-12-29T00:33:34;93695.22;;;2.52;83.58
11680;BME280;5896;42.686;23.142;2023-12-29T00:36:00;93679.50;;;2.04;83.04
11680;BME280;5896;42.686;23.142;2023-12-29T00:38:29;93687.50;;;2.09;84.04
11680;BME280;5896;42.686;23.142;2023-12-29T00:40:54;93686.03;;;2.07;84.98
11680;BME280;5896;42.686;23.142;2023-12-29T00:43:20;93687.88;;;1.97;84.65
11680;BME280;5896;42.686;23.142;2023-12-29T00:45:46;93701.38;;;1.71;84.61
11680;BME280;5896;42.686;23.142;2023-12-29T00:48:11;93700.91;;;1.93;85.26
11680;BME280;5896;42.686;23.142;2023-12-29T00:50:37;93699.75;;;1.88;84.46
11680;BME280;5896;42.686;23.142;2023-12-29T00:53:02;93713.22;;;1.27;84.75
11680;BME280;5896;42.686;23.142;2023-12-29T00:55:27;93715.41;;;1.57;85.92
11680;BME280;5896;42.686;23.142;2023-12-29T00:57:53;93712.28;;;1.63;85.95
11680;BME280;5896;42.686;23.142;2023-12-29T01:00:18;93706.53;;;1.79;86.24
11680;BME280;5896;42.686;23.142;2023-12-29T01:02:44;93698.78;;;1.89;85.00
11680;BME280;5896;42.686;23.142;2023-12-29T01:05:09;93706.66;;;1.78;85.07
11680;BME280;5896;42.686;23.142;2023-12-29T01:07:35;93710.03;;;1.60;85.36
11680;BME280;5896;42.686;23.142;2023-12-29T01:10:00;93710.47;;;1.56;85.81
11680;BME280;5896;42.686;23.142;2023-12-29T01:12:26;93713.09;;;1.46;85.72
11680;BME280;5896;42.686;23.142;2023-12-29T01:14:51;93722.00;;;1.32;85.89
11680;BME280;5896;42.686;23.142;2023-12-29T01:17:17;93717.06;;;1.31;85.53
11680;BME280;5896;42.686;23.142;2023-12-29T01:19:42;93716.41;;;1.29;85.82
11680;BME280;5896;42.686;23.142;2023-12-29T01:22:08;93718.91;;;1.38;86.92
11680;BME280;5896;42.686;23.142;2023-12-29T01:24:33;93721.19;;;1.32;86.00
11680;BME280;5896;42.686;23.142;2023-12-29T01:26:58;93717.78;;;1.23;87.13
11680;BME280;5896;42.686;23.142;2023-12-29T01:29:24;93723.44;;;1.17;86.09
11680;BME280;5896;42.686;23.142;2023-12-29T01:31:49;93725.91;;;1.09;86.62
11680;BME280;5896;42.686;23.142;2023-12-29T01:34:14;93727.91;;;1.05;85.51
11680;BME280;5896;42.686;23.142;2023-12-29T01:36:40;93717.91;;;1.04;87.05
11680;BME280;5896;42.686;23.142;2023-12-29T01:39:05;93713.25;;;0.99;87.08
11680;BME280;5896;42.686;23.142;2023-12-29T01:41:30;93717.38;;;1.00;87.24
11680;BME280;5896;42.686;23.142;2023-12-29T01:46:22;93710.78;;;1.07;87.83
11680;BME280;5896;42.686;23.142;2023-12-29T01:48:48;93710.22;;;1.13;88.48
11680;BME280;5896;42.686;23.142;2023-12-29T01:51:14;93706.94;;;1.21;88.89
11680;BME280;5896;42.686;23.142;2023-12-29T01:53:40;93693.94;;;1.24;87.49
11680;BME280;5896;42.686;23.142;2023-12-29T01:56:06;93698.19;;;1.33;87.90
11680;BME280;5896;42.686;23.142;2023-12-29T01:58:33;93686.19;;;1.61;86.75
11680;BME280;5896;42.686;23.142;2023-12-29T02:01:00;93677.09;;;1.59;86.98
11680;BME280;5896;42.686;23.142;2023-12-29T02:03:26;93679.50;;;1.60;86.31
11680;BME280;5896;42.686;23.142;2023-12-29T02:05:54;93669.97;;;1.62;86.46
11680;BME280;5896;42.686;23.142;2023-12-29T02:08:21;93679.34;;;1.62;85.49
11680;BME280;5896;42.686;23.142;2023-12-29T02:10:48;93667.88;;;1.58;85.50
11680;BME280;5896;42.686;23.142;2023-12-29T02:13:13;93666.13;;;1.58;85.95
11680;BME280;5896;42.686;23.142;2023-12-29T02:15:39;93669.56;;;1.49;86.45
11680;BME280;5896;42.686;23.142;2023-12-29T02:18:06;93666.00;;;1.42;86.23
11680;BME280;5896;42.686;23.142;2023-12-29T02:20:35;93665.03;;;1.43;86.56
11680;BME280;5896;42.686;23.142;2023-12-29T02:23:02;93654.00;;;1.34;86.11
11680;BME280;5896;42.686;23.142;2023-12-29T02:25:27;93652.19;;;1.27;86.43
11680;BME280;5896;42.686;23.142;2023-12-29T02:27:58;93650.94;;;1.31;86.92
11680;BME280;5896;42.686;23.142;2023-12-29T02:30:37;93655.03;;;1.41;88.61
11680;BME280;5896;42.686;23.142;2023-12-29T02:33:10;93646.59;;;1.41;86.61
11680;BME280;5896;42.686;23.142;2023-12-29T02:35:43;93647.53;;;1.22;86.79
11680;BME280;5896;42.686;23.142;2023-12-29T02:38:11;93644.56;;;1.27;86.38
11680;BME280;5896;42.686;23.142;2023-12-29T02:40:36;93647.69;;;1.20;86.10
11680;BME280;5896;42.686;23.142;2023-12-29T02:43:02;93648.78;;;1.18;87.05
11680;BME280;5896;42.686;23.142;2023-12-29T02:45:28;93629.75;;;1.22;86.89
11680;BME280;5896;42.686;23.142;2023-12-29T02:47:53;93636.06;;;1.18;86.85
11680;BME280;5896;42.686;23.142;2023-12-29T02:50:19;93628.84;;;1.13;88.17
11680;BME280;5896;42.686;23.142;2023-12-29T02:52:44;93629.47;;;1.25;87.00
11680;BME280;5896;42.686;23.142;2023-12-29T02:55:10;93628.44;;;1.18;86.38
11680;BME280;5896;42.686;23.142;2023-12-29T02:57:35;93622.88;;;0.87;88.99
11680;BME280;5896;42.686;23.142;2023-12-29T03:00:01;93624.22;;;1.09;87.61
11680;BME280;5896;42.686;23.142;2023-12-29T03:02:27;93619.28;;;1.07;87.93
11680;BME280;5896;42.686;23.142;2023-12-29T03:04:52;93613.53;;;1.05;86.95
11680;BME280;5896;42.686;23.142;2023-12-29T03:07:18;93608.00;;;1.10;87.42
11680;BME280;5896;42.686;23.142;2023-12-29T03:09:43;93613.97;;;1.01;87.41
11680;BME280;5896;42.686;23.142;2023-12-29T03:12:09;93612.38;;;0.82;87.47
11680;BME280;5896;42.686;23.142;2023-12-29T03:14:34;93627.13;;;0.96;86.92
11680;BME280;5896;42.686;23.142;2023-12-29T03:17:00;93621.38;;;0.94;87.09
11680;BME280;5896;42.686;23.142;2023-12-29T03:19:25;93620.06;;;0.90;87.82
11680;BME280;5896;42.686;23.142;2023-12-29T03:21:51;93613.25;;;0.90;88.51
11680;BME280;5896;42.686;23.142;2023-12-29T03:24:19;93607.22;;;0.91;87.11
11680;BME280;5896;42.686;23.142;2023-12-29T03:26:44;93599.09;;;0.88;87.17
11680;BME280;5896;42.686;23.142;2023-12-29T03:29:11;93596.41;;;0.89;88.15
11680;BME280;5896;42.686;23.142;2023-12-29T03:31:36;93601.06;;;0.48;87.48
11680;BME280;5896;42.686;23.142;2023-12-29T03:34:01;93610.50;;;0.56;86.95
11680;BME280;5896;42.686;23.142;2023-12-29T03:36:27;93615.06;;;0.25;87.82
11680;BME280;5896;42.686;23.142;2023-12-29T03:38:52;93624.06;;;0.47;87.18
11680;BME280;5896;42.686;23.142;2023-12-29T03:41:18;93610.19;;;0.41;87.92
11680;BME280;5896;42.686;23.142;2023-12-29T03:43:44;93620.34;;;0.41;87.88
11680;BME280;5896;42.686;23.142;2023-12-29T03:46:35;93620.72;;;0.46;88.34
11680;BME280;5896;42.686;23.142;2023-12-29T03:49:01;93625.09;;;-0.11;88.79
11680;BME280;5896;42.686;23.142;2023-12-29T03:51:26;93628.13;;;0.03;88.47
11680;BME280;5896;42.686;23.142;2023-12-29T03:53:51;93623.91;;;0.21;88.99
11680;BME280;5896;42.686;23.142;2023-12-29T03:56:18;93622.69;;;0.25;89.27
11680;BME280;5896;42.686;23.142;2023-12-29T03:58:47;93620.47;;;0.12;88.31
11680;BME280;5896;42.686;23.142;2023-12-29T04:01:13;93620.31;;;0.14;89.20
11680;BME280;5896;42.686;23.142;2023-12-29T04:03:39;93624.72;;;0.21;89.90
11680;BME280;5896;42.686;23.142;2023-12-29T04:06:05;93619.88;;;0.28;88.71
11680;BME280;5896;42.686;23.142;2023-12-29T04:08:33;93612.41;;;0.27;88.32
11680;BME280;5896;42.686;23.142;2023-12-29T04:10:58;93610.94;;;0.52;89.50
11680;BME280;5896;42.686;23.142;2023-12-29T04:13:23;93601.56;;;0.52;88.95
11680;BME280;5896;42.686;23.142;2023-12-29T04:15:49;93598.84;;;0.63;88.24
11680;BME280;5896;42.686;23.142;2023-12-29T04:18:14;93605.28;;;0.03;89.09
11680;BME280;5896;42.686;23.142;2023-12-29T04:20:40;93617.69;;;0.06;88.58
11680;BME280;5896;42.686;23.142;2023-12-29T04:23:06;93612.16;;;0.20;88.67
11680;BME280;5896;42.686;23.142;2023-12-29T04:25:32;93614.47;;;0.13;88.12
11680;BME280;5896;42.686;23.142;2023-12-29T04:27:58;93616.28;;;-0.16;88.84
11680;BME280;5896;42.686;23.142;2023-12-29T04:30:24;93617.00;;;0.04;89.25
11680;BME280;5896;42.686;23.142;2023-12-29T04:32:49;93616.75;;;0.07;89.42
11680;BME280;5896;42.686;23.142;2023-12-29T04:35:15;93616.66;;;-0.02;88.82
11680;BME280;5896;42.686;23.142;2023-12-29T04:37:42;93615.31;;;0.04;89.55
11680;BME280;5896;42.686;23.142;2023-12-29T04:40:08;93613.66;;;0.13;90.08
11680;BME280;5896;42.686;23.142;2023-12-29T04:42:33;93616.66;;;-0.02;89.18
11680;BME280;5896;42.686;23.142;2023-12-29T04:44:58;93609.66;;;0.10;89.72
11680;BME280;5896;42.686;23.142;2023-12-29T04:47:24;93613.50;;;0.14;89.80
11680;BME280;5896;42.686;23.142;2023-12-29T04:49:49;93618.84;;;0.11;88.79
11680;BME280;5896;42.686;23.142;2023-12-29T04:52:15;93608.69;;;0.21;89.48
11680;BME280;5896;42.686;23.142;2023-12-29T04:54:40;93607.22;;;0.18;89.70
11680;BME280;5896;42.686;23.142;2023-12-29T04:57:05;93604.47;;;0.12;89.43
11680;BME280;5896;42.686;23.142;2023-12-29T04:59:31;93606.69;;;0.15;89.78
11680;BME280;5896;42.686;23.142;2023-12-29T05:01:56;93594.53;;;0.18;89.94
11680;BME280;5896;42.686;23.142;2023-12-29T05:04:21;93601.75;;;0.23;89.02
11680;BME280;5896;42.686;23.142;2023-12-29T05:06:47;93602.09;;;0.28;89.27
11680;BME280;5896;42.686;23.142;2023-12-29T05:09:12;93605.16;;;0.32;89.05
11680;BME280;5896;42.686;23.142;2023-12-29T05:11:38;93603.25;;;0.34;89.49
11680;BME280;5896;42.686;23.142;2023-12-29T05:14:03;93600.69;;;0.43;90.16
11680;BME280;5896;42.686;23.142;2023-12-29T05:16:29;93601.56;;;0.52;89.63
11680;BME280;5896;42.686;23.142;2023-12-29T05:18:54;93592.16;;;0.62;89.18
11680;BME280;5896;42.686;23.142;2023-12-29T05:21:20;93593.31;;;0.50;87.41
11680;BME280;5896;42.686;23.142;2023-12-29T05:23:46;93597.63;;;0.40;87.81
11680;BME280;5896;42.686;23.142;2023-12-29T05:26:13;93592.28;;;0.43;88.25
11680;BME280;5896;42.686;23.142;2023-12-29T05:28:38;93587.50;;;0.30;87.98
11680;BME280;5896;42.686;23.142;2023-12-29T05:31:03;93598.09;;;0.26;87.81
11680;BME280;5896;42.686;23.142;2023-12-29T05:33:30;93599.22;;;0.13;88.25
11680;BME280;5896;42.686;23.142;2023-12-29T05:35:56;93598.19;;;0.34;89.35
11680;BME280;5896;42.686;23.142;2023-12-29T05:38:21;93596.94;;;0.47;90.74
11680;BME280;5896;42.686;23.142;2023-12-29T05:40:46;93589.28;;;0.75;90.15
11680;BME280;5896;42.686;23.142;2023-12-29T05:43:12;93584.41;;;0.82;89.65
11680;BME280;5896;42.686;23.142;2023-12-29T05:45:37;93581.00;;;0.73;88.34
11680;BME280;5896;42.686;23.142;2023-12-29T05:48:03;93580.47;;;0.52;88.21
11680;BME280;5896;42.686;23.142;2023-12-29T05:50:28;93588.84;;;0.34;89.18
11680;BME280;5896;42.686;23.142;2023-12-29T05:52:54;93589.84;;;0.23;89.81
11680;BME280;5896;42.686;23.142;2023-12-29T05:55:19;93595.66;;;0.34;87.82
11680;BME280;5896;42.686;23.142;2023-12-29T05:57:45;93597.78;;;0.38;88.27
11680;BME280;5896;42.686;23.142;2023-12-29T06:00:11;93601.75;;;0.13;89.34
11680;BME280;5896;42.686;23.142;2023-12-29T06:02:40;93593.53;;;0.29;90.26
11680;BME280;5896;42.686;23.142;2023-12-29T06:05:07;93597.97;;;0.27;89.74
11680;BME280;5896;42.686;23.142;2023-12-29T06:07:33;93592.56;;;0.12;89.67
11680;BME280;5896;42.686;23.142;2023-12-29T06:09:58;93591.16;;;0.28;88.86
11680;BME280;5896;42.686;23.142;2023-12-29T06:12:24;93594.13;;;0.23;89.58
11680;BME280;5896;42.686;23.142;2023-12-29T06:14:49;93597.56;;;0.22;88.95
11680;BME280;5896;42.686;23.142;2023-12-29T06:17:15;93592.28;;;0.15;88.47
11680;BME280;5896;42.686;23.142;2023-12-29T06:19:41;93593.16;;;-0.04;88.43
11680;BME280;5896;42.686;23.142;2023-12-29T06:22:06;93601.69;;;-0.05;90.26
11680;BME280;5896;42.686;23.142;2023-12-29T06:24:37;93600.53;;;-0.20;89.59
11680;BME280;5896;42.686;23.142;2023-12-29T06:27:03;93595.28;;;0.01;90.51
11680;BME280;5896;42.686;23.142;2023-12-29T06:29:28;93600.09;;;-0.06;90.45
11680;BME280;5896;42.686;23.142;2023-12-29T06:31:54;93597.91;;;-0.28;89.73
11680;BME280;5896;42.686;23.142;2023-12-29T06:34:19;93611.53;;;-0.29;89.60
11680;BME280;5896;42.686;23.142;2023-12-29T06:36:44;93617.88;;;-0.06;88.87
11680;BME280;5896;42.686;23.142;2023-12-29T06:39:10;93617.72;;;-0.04;89.67
11680;BME280;5896;42.686;23.142;2023-12-29T06:41:35;93620.78;;;-0.01;89.20
11680;BME280;5896;42.686;23.142;2023-12-29T06:44:01;93604.31;;;0.04;89.13
11680;BME280;5896;42.686;23.142;2023-12-29T06:46:26;93611.72;;;-0.03;90.19
11680;BME280;5896;42.686;23.142;2023-12-29T06:48:51;93607.94;;;-0.36;90.02
11680;BME280;5896;42.686;23.142;2023-12-29T06:51:18;93615.75;;;-0.10;89.00
11680;BME280;5896;42.686;23.142;2023-12-29T06:53:46;93606.06;;;0.03;89.87
11680;BME280;5896;42.686;23.142;2023-12-29T06:56:14;93598.28;;;0.14;90.62
11680;BME280;5896;42.686;23.142;2023-12-29T06:58:40;93598.31;;;0.42;91.52
11680;BME280;5896;42.686;23.142;2023-12-29T07:01:05;93585.06;;;0.66;89.90
11680;BME280;5896;42.686;23.142;2023-12-29T07:03:30;93584.06;;;0.49;89.91
11680;BME280;5896;42.686;23.142;2023-12-29T07:05:56;93588.56;;;0.37;88.77
11680;BME280;5896;42.686;23.142;2023-12-29T07:08:22;93606.88;;;0.59;88.98
11680;BME280;5896;42.686;23.142;2023-12-29T07:10:47;93605.03;;;0.79;90.20
11680;BME280;5896;42.686;23.142;2023-12-29T07:13:15;93609.56;;;1.03;90.35
11680;BME280;5896;42.686;23.142;2023-12-29T07:15:40;93605.69;;;1.34;89.37
11680;BME280;5896;42.686;23.142;2023-12-29T07:18:06;93604.00;;;1.43;88.55
11680;BME280;5896;42.686;23.142;2023-12-29T07:20:31;93593.25;;;1.49;87.90
11680;BME280;5896;42.686;23.142;2023-12-29T07:22:58;93586.16;;;1.61;86.61
11680;BME280;5896;42.686;23.142;2023-12-29T07:25:23;93582.97;;;1.59;86.50
11680;BME280;5896;42.686;23.142;2023-12-29T07:27:48;93591.28;;;1.43;86.49
11680;BME280;5896;42.686;23.142;2023-12-29T07:30:14;93586.31;;;1.59;87.16
11680;BME280;5896;42.686;23.142;2023-12-29T07:32:40;93592.47;;;1.75;86.66
11680;BME280;5896;42.686;23.142;2023-12-29T07:35:05;93593.59;;;1.80;86.39
11680;BME280;5896;42.686;23.142;2023-12-29T07:37:31;93585.06;;;1.89;86.85
11680;BME280;5896;42.686;23.142;2023-12-29T07:39:56;93578.13;;;2.00;86.16
11680;BME280;5896;42.686;23.142;2023-12-29T07:42:21;93591.41;;;2.19;86.51
11680;BME280;5896;42.686;23.142;2023-12-29T07:44:47;93607.34;;;2.22;87.52
11680;BME280;5896;42.686;23.142;2023-12-29T07:47:12;93609.13;;;2.29;87.25
11680;BME280;5896;42.686;23.142;2023-12-29T07:49:37;93593.69;;;2.73;84.57
11680;BME280;5896;42.686;23.142;2023-12-29T07:52:03;93590.22;;;2.99;83.06
11680;BME280;5896;42.686;23.142;2023-12-29T07:54:29;93600.38;;;2.74;85.95
11680;BME280;5896;42.686;23.142;2023-12-29T07:56:54;93594.81;;;2.87;84.07
11680;BME280;5896;42.686;23.142;2023-12-29T07:59:19;93588.31;;;3.01;83.15
11680;BME280;5896;42.686;23.142;2023-12-29T08:01:45;93591.00;;;2.99;84.52
11680;BME280;5896;42.686;23.142;2023-12-29T08:04:10;93598.22;;;3.28;83.12
11680;BME280;5896;42.686;23.142;2023-12-29T08:06:39;93600.94;;;3.51;82.78
11680;BME280;5896;42.686;23.142;2023-12-29T08:09:04;93597.88;;;3.80;81.29
11680;BME280;5896;42.686;23.142;2023-12-29T08:11:30;93590.25;;;4.28;79.02
11680;BME280;5896;42.686;23.142;2023-12-29T08:13:55;93586.47;;;4.63;77.63
11680;BME280;5896;42.686;23.142;2023-12-29T08:16:21;93589.06;;;4.86;78.13
11680;BME280;5896;42.686;23.142;2023-12-29T08:18:49;93586.34;;;5.10;76.36
11680;BME280;5896;42.686;23.142;2023-12-29T08:21:20;93586.63;;;5.61;74.51
11680;BME280;5896;42.686;23.142;2023-12-29T08:23:46;93584.34;;;6.19;73.86
11680;BME280;5896;42.686;23.142;2023-12-29T08:26:12;93592.34;;;6.75;70.38
11680;BME280;5896;42.686;23.142;2023-12-29T08:28:37;93585.78;;;7.24;68.79
11680;BME280;5896;42.686;23.142;2023-12-29T08:31:03;93586.31;;;7.62;69.55
11680;BME280;5896;42.686;23.142;2023-12-29T08:33:28;93594.50;;;7.51;69.42
11680;BME280;5896;42.686;23.142;2023-12-29T08:35:54;93600.66;;;7.78;67.67
11680;BME280;5896;42.686;23.142;2023-12-29T08:38:24;93587.22;;;7.54;67.56
11680;BME280;5896;42.686;23.142;2023-12-29T08:40:49;93597.72;;;7.81;67.71
11680;BME280;5896;42.686;23.142;2023-12-29T08:43:15;93597.72;;;8.09;66.71
11680;BME280;5896;42.686;23.142;2023-12-29T08:45:42;93596.75;;;7.82;67.47
11680;BME280;5896;42.686;23.142;2023-12-29T08:48:07;93600.97;;;8.24;66.28
11680;BME280;5896;42.686;23.142;2023-12-29T08:50:33;93597.31;;;8.68;64.01
11680;BME280;5896;42.686;23.142;2023-12-29T08:52:58;93603.19;;;8.27;66.15
11680;BME280;5896;42.686;23.142;2023-12-29T08:55:23;93615.75;;;7.88;66.27
11680;BME280;5896;42.686;23.142;2023-12-29T08:57:49;93602.88;;;8.37;66.11
11680;BME280;5896;42.686;23.142;2023-12-29T09:00:14;93617.38;;;8.45;65.18
11680;BME280;5896;42.686;23.142;2023-12-29T09:02:40;93615.66;;;9.07;63.07
11680;BME280;5896;42.686;23.142;2023-12-29T09:05:06;93610.41;;;9.28;62.14
11680;BME280;5896;42.686;23.142;2023-12-29T09:07:32;93607.81;;;9.35;62.09
11680;BME280;5896;42.686;23.142;2023-12-29T09:09:58;93594.78;;;9.56;61.80
11680;BME280;5896;42.686;23.142;2023-12-29T09:12:24;93594.00;;;10.02;59.95
11680;BME280;5896;42.686;23.142;2023-12-29T09:14:49;93596.00;;;10.27;59.72
11680;BME280;5896;42.686;23.142;2023-12-29T09:17:14;93589.16;;;10.52;57.88
11680;BME280;5896;42.686;23.142;2023-12-29T09:19:40;93579.59;;;10.73;56.64
11680;BME280;5896;42.686;23.142;2023-12-29T09:22:05;93577.47;;;11.01;57.13
11680;BME280;5896;42.686;23.142;2023-12-29T09:24:31;93576.25;;;10.65;57.30
11680;BME280;5896;42.686;23.142;2023-12-29T09:26:56;93573.13;;;10.43;59.54
11680;BME280;5896;42.686;23.142;2023-12-29T09:29:21;93573.59;;;10.79;58.31
11680;BME280;5896;42.686;23.142;2023-12-29T09:31:47;93572.44;;;10.68;57.89
11680;BME280;5896;42.686;23.142;2023-12-29T09:34:12;93572.72;;;10.98;56.83
11680;BME280;5896;42.686;23.142;2023-12-29T09:36:38;93571.63;;;11.51;57.31
11680;BME280;5896;42.686;23.142;2023-12-29T09:39:03;93558.09;;;11.24;57.27
11680;BME280;5896;42.686;23.142;2023-12-29T09:41:31;93558.97;;;11.42;55.28
11680;BME280;5896;42.686;23.142;2023-12-29T09:43:57;93559.88;;;10.85;55.40
11680;BME280;5896;42.686;23.142;2023-12-29T09:46:23;93555.56;;;11.74;54.58
11680;BME280;5896;42.686;23.142;2023-12-29T09:48:52;93557.34;;;12.05;54.27
11680;BME280;5896;42.686;23.142;2023-12-29T09:51:18;93555.41;;;12.18;53.93
11680;BME280;5896;42.686;23.142;2023-12-29T09:53:48;93564.38;;;11.66;55.07
11680;BME280;5896;42.686;23.142;2023-12-29T09:56:14;93559.47;;;11.58;50.61
11680;BME280;5896;42.686;23.142;2023-12-29T09:58:41;93555.63;;;11.35;52.19
11680;BME280;5896;42.686;23.142;2023-12-29T10:01:06;93548.53;;;12.49;50.67
11680;BME280;5896;42.686;23.142;2023-12-29T10:03:33;93550.69;;;12.52;50.26
11680;BME280;5896;42.686;23.142;2023-12-29T10:06:06;93551.63;;;13.25;43.79
11680;BME280;5896;42.686;23.142;2023-12-29T10:08:36;93541.47;;;12.75;44.04
11680;BME280;5896;42.686;23.142;2023-12-29T10:11:03;93537.75;;;12.34;48.49
11680;BME280;5896;42.686;23.142;2023-12-29T10:13:31;93535.81;;;11.29;53.70
11680;BME280;5896;42.686;23.142;2023-12-29T10:16:08;93532.66;;;11.52;54.08
11680;BME280;5896;42.686;23.142;2023-12-29T10:21:17;93524.09;;;10.43;59.11
11680;BME280;5896;42.686;23.142;2023-12-29T10:24:10;93531.38;;;10.60;55.95
11680;BME280;5896;42.686;23.142;2023-12-29T10:26:38;93534.09;;;10.00;58.06
11680;BME280;5896;42.686;23.142;2023-12-29T10:29:05;93522.91;;;10.39;57.95
11680;BME280;5896;42.686;23.142;2023-12-29T10:31:30;93513.06;;;9.90;57.75
11680;BME280;5896;42.686;23.142;2023-12-29T10:34:21;93509.16;;;10.97;56.02
11680;BME280;5896;42.686;23.142;2023-12-29T10:36:53;93509.47;;;11.14;54.04
11680;BME280;5896;42.686;23.142;2023-12-29T10:39:19;93503.78;;;11.55;53.01
11680;BME280;5896;42.686;23.142;2023-12-29T10:41:44;93497.91;;;11.98;51.64
11680;BME280;5896;42.686;23.142;2023-12-29T10:44:10;93491.78;;;12.11;54.29
11680;BME280;5896;42.686;23.142;2023-12-29T10:46:35;93479.22;;;13.53;43.38
11680;BME280;5896;42.686;23.142;2023-12-29T10:49:11;93471.97;;;13.02;44.33
11680;BME280;5896;42.686;23.142;2023-12-29T10:51:37;93471.97;;;12.72;46.01
11680;BME280;5896;42.686;23.142;2023-12-29T10:54:04;93466.91;;;13.37;44.18
11680;BME280;5896;42.686;23.142;2023-12-29T10:56:31;93467.50;;;13.74;45.72
11680;BME280;5896;42.686;23.142;2023-12-29T10:59:01;93466.72;;;13.74;45.72
11680;BME280;5896;42.686;23.142;2023-12-29T11:01:32;93456.22;;;13.69;46.94
11680;BME280;5896;42.686;23.142;2023-12-29T11:03:59;93443.88;;;14.23;46.33
11680;BME280;5896;42.686;23.142;2023-12-29T11:06:26;93444.88;;;14.33;45.27
11680;BME280;5896;42.686;23.142;2023-12-29T11:08:52;93444.78;;;14.17;46.55
11680;BME280;5896;42.686;23.142;2023-12-29T11:11:18;93451.84;;;13.57;47.59
11680;BME280;5896;42.686;23.142;2023-12-29T11:13:46;93449.69;;;13.78;46.99
11680;BME280;5896;42.686;23.142;2023-12-29T11:16:12;93449.22;;;12.92;48.24
11680;BME280;5896;42.686;23.142;2023-12-29T11:18:38;93452.19;;;12.77;49.38
11680;BME280;5896;42.686;23.142;2023-12-29T11:21:05;93454.06;;;13.00;49.26
11680;BME280;5896;42.686;23.142;2023-12-29T11:23:31;93442.59;;;13.08;49.22
11680;BME280;5896;42.686;23.142;2023-12-29T11:25:57;93448.53;;;13.38;48.62
11680;BME280;5896;42.686;23.142;2023-12-29T11:28:25;93438.84;;;13.81;45.78
11680;BME280;5896;42.686;23.142;2023-12-29T11:30:51;93447.88;;;14.14;45.29
11680;BME280;5896;42.686;23.142;2023-12-29T11:33:26;93441.53;;;14.62;43.79
11680;BME280;5896;42.686;23.142;2023-12-29T11:35:57;93430.78;;;15.15;41.77
11680;BME280;5896;42.686;23.142;2023-12-29T11:41:13;93435.63;;;13.20;47.01
11680;BME280;5896;42.686;23.142;2023-12-29T11:43:42;93428.34;;;13.99;46.86
11680;BME280;5896;42.686;23.142;2023-12-29T11:46:34;93427.00;;;15.06;42.36
11680;BME280;5896;42.686;23.142;2023-12-29T11:49:00;93433.47;;;12.75;46.93
11680;BME280;5896;42.686;23.142;2023-12-29T11:51:40;93431.63;;;14.06;44.44
11680;BME280;5896;42.686;23.142;2023-12-29T11:54:06;93426.00;;;14.38;43.07
11680;BME280;5896;42.686;23.142;2023-12-29T11:56:37;93425.97;;;14.62;43.06
11680;BME280;5896;42.686;23.142;2023-12-29T12:01:46;93424.41;;;13.97;44.96
11680;BME280;5896;42.686;23.142;2023-12-29T12:04:41;93419.59;;;12.58;48.64
11680;BME280;5896;42.686;23.142;2023-12-29T12:09:39;93416.28;;;12.51;48.51
11680;BME280;5896;42.686;23.142;2023-12-29T12:12:05;93416.44;;;12.19;49.33
11680;BME280;5896;42.686;23.142;2023-12-29T12:14:50;93419.50;;;11.98;48.59
11680;BME280;5896;42.686;23.142;2023-12-29T12:17:32;93424.19;;;11.39;50.59
11680;BME280;5896;42.686;23.142;2023-12-29T12:20:01;93425.09;;;11.26;51.24
11680;BME280;5896;42.686;23.142;2023-12-29T12:22:29;93423.31;;;11.27;50.89
11680;BME280;5896;42.686;23.142;2023-12-29T12:24:56;93425.41;;;11.61;51.32
11680;BME280;5896;42.686;23.142;2023-12-29T12:27:24;93424.88;;;11.96;50.05
11680;BME280;5896;42.686;23.142;2023-12-29T12:29:55;93430.63;;;11.98;49.41
11680;BME280;5896;42.686;23.142;2023-12-29T12:32:23;93424.41;;;11.81;49.87
11680;BME280;5896;42.686;23.142;2023-12-29T12:34:48;93424.88;;;12.14;49.29
11680;BME280;5896;42.686;23.142;2023-12-29T12:37:18;93416.06;;;12.52;47.38
11680;BME280;5896;42.686;23.142;2023-12-29T12:39:44;93422.19;;;12.39;47.98
11680;BME280;5896;42.686;23.142;2023-12-29T12:42:09;93431.59;;;12.52;47.68
11680;BME280;5896;42.686;23.142;2023-12-29T12:44:38;93420.16;;;12.41;47.41
11680;BME280;5896;42.686;23.142;2023-12-29T12:47:10;93422.59;;;12.06;47.89
11680;BME280;5896;42.686;23.142;2023-12-29T12:49:39;93429.63;;;11.99;49.99
11680;BME280;5896;42.686;23.142;2023-12-29T12:52:05;93430.16;;;11.83;47.58
11680;BME280;5896;42.686;23.142;2023-12-29T12:54:31;93426.34;;;11.67;47.94
11680;BME280;5896;42.686;23.142;2023-12-29T12:56:57;93424.56;;;11.42;50.16
11680;BME280;5896;42.686;23.142;2023-12-29T12:59:22;93427.47;;;11.53;49.40
11680;BME280;5896;42.686;23.142;2023-12-29T13:01:48;93428.84;;;11.74;47.07
11680;BME280;5896;42.686;23.142;2023-12-29T13:04:13;93425.91;;;11.70;47.34
11680;BME280;5896;42.686;23.142;2023-12-29T13:06:40;93427.19;;;11.17;47.26
11680;BME280;5896;42.686;23.142;2023-12-29T13:09:07;93424.44;;;11.06;47.98
11680;BME280;5896;42.686;23.142;2023-12-29T13:11:37;93413.44;;;11.17;48.70
11680;BME280;5896;42.686;23.142;2023-12-29T13:14:03;93422.50;;;11.01;48.79
11680;BME280;5896;42.686;23.142;2023-12-29T13:16:34;93423.84;;;11.10;49.60
11680;BME280;5896;42.686;23.142;2023-12-29T13:21:41;93431.59;;;11.35;48.43